sensor_id;sensor_type;location;lat;lon;timestamp;P1;durP1;ratioP1;P2;durP2;ratioP2
10144;SDS011;5113;41.822;23.564;2024-03-02T00:01:46;7.13;;;6.17;;
10144;SDS011;5113;41.822;23.564;2024-03-02T00:04:54;6.67;;;5.37;;
10144;SDS011;5113;41.822;23.564;2024-03-02T00:08:00;7.40;;;6.03;;
10144;SDS011;5113;41.822;23.564;2024-03-02T00:11:10;10.73;;;6.30;;
10144;SDS011;5113;41.822;23.564;2024-03-02T00:14:19;7.20;;;6.50;;
10144;SDS011;5113;41.822;23.564;2024-03-02T00:17:26;7.47;;;6.40;;
10144;SDS011;5113;41.822;23.564;2024-03-02T00:20:34;8.03;;;5.80;;
10144;SDS011;5113;41.822;23.564;2024-03-02T00:23:41;10.43;;;5.87;;
10144;SDS011;5113;41.822;23.564;2024-03-02T00:26:48;6.27;;;5.60;;
10144;SDS011;5113;41.822;23.564;2024-03-02T00:29:55;7.27;;;4.47;;
10144;SDS011;5113;41.822;23.564;2024-03-02T00:33:02;7.07;;;4.70;;
10144;SDS011;5113;41.822;23.564;2024-03-02T00:36:15;7.80;;;5.57;;
10144;SDS011;5113;41.822;23.564;2024-03-02T00:39:29;10.07;;;6.70;;
10144;SDS011;5113;41.822;23.564;2024-03-02T00:42:36;6.27;;;5.37;;
10144;SDS011;5113;41.822;23.564;2024-03-02T00:45:43;9.07;;;4.70;;
10144;SDS011;5113;41.822;23.564;2024-03-02T00:48:54;4.17;;;3.77;;
10144;SDS011;5113;41.822;23.564;2024-03-02T00:52:03;4.70;;;4.20;;
10144;SDS011;5113;41.822;23.564;2024-03-02T00:55:12;5.97;;;4.47;;
10144;SDS011;5113;41.822;23.564;2024-03-02T00:58:19;7.10;;;4.67;;
10144;SDS011;5113;41.822;23.564;2024-03-02T01:01:26;7.50;;;4.97;;
10144;SDS011;5113;41.822;23.564;2024-03-02T01:04:33;7.30;;;5.17;;
10144;SDS011;5113;41.822;23.564;2024-03-02T01:07:41;6.70;;;4.77;;
10144;SDS011;5113;41.822;23.564;2024-03-02T01:10:47;6.20;;;5.20;;
10144;SDS011;5113;41.822;23.564;2024-03-02T01:13:54;6.03;;;5.43;;
10144;SDS011;5113;41.822;23.564;2024-03-02T01:17:01;7.20;;;5.87;;
10144;SDS011;5113;41.822;23.564;2024-03-02T01:20:09;11.40;;;7.07;;
10144;SDS011;5113;41.822;23.564;2024-03-02T01:23:18;6.03;;;4.90;;
10144;SDS011;5113;41.822;23.564;2024-03-02T01:26:25;8.20;;;6.27;;
10144;SDS011;5113;41.822;23.564;2024-03-02T01:29:32;4.93;;;4.10;;
10144;SDS011;5113;41.822;23.564;2024-03-02T01:32:38;5.13;;;4.67;;
10144;SDS011;5113;41.822;23.564;2024-03-02T01:35:45;5.77;;;5.10;;
10144;SDS011;5113;41.822;23.564;2024-03-02T01:38:53;6.10;;;4.70;;
10144;SDS011;5113;41.822;23.564;2024-03-02T01:42:00;7.10;;;4.70;;
10144;SDS011;5113;41.822;23.564;2024-03-02T01:45:07;10.40;;;4.80;;
10144;SDS011;5113;41.822;23.564;2024-03-02T01:48:14;5.87;;;4.10;;
10144;SDS011;5113;41.822;23.564;2024-03-02T01:51:22;9.40;;;4.70;;
10144;SDS011;5113;41.822;23.564;2024-03-02T01:54:30;5.73;;;4.50;;
10144;SDS011;5113;41.822;23.564;2024-03-02T01:57:37;5.57;;;4.30;;
10144;SDS011;5113;41.822;23.564;2024-03-02T02:00:44;5.87;;;4.00;;
10144;SDS011;5113;41.822;23.564;2024-03-02T02:03:51;4.47;;;4.07;;
10144;SDS011;5113;41.822;23.564;2024-03-02T02:06:57;4.83;;;4.33;;
10144;SDS011;5113;41.822;23.564;2024-03-02T02:10:06;4.90;;;4.17;;
10144;SDS011;5113;41.822;23.564;2024-03-02T02:13:14;4.37;;;3.93;;
10144;SDS011;5113;41.822;23.564;2024-03-02T02:16:20;4.40;;;3.70;;
10144;SDS011;5113;41.822;23.564;2024-03-02T02:19:27;7.47;;;5.43;;
10144;SDS011;5113;41.822;23.564;2024-03-02T02:22:36;4.67;;;4.13;;
10144;SDS011;5113;41.822;23.564;2024-03-02T02:25:42;5.17;;;3.90;;
10144;SDS011;5113;41.822;23.564;2024-03-02T02:28:49;5.93;;;4.07;;
10144;SDS011;5113;41.822;23.564;2024-03-02T02:31:55;3.27;;;3.07;;
10144;SDS011;5113;41.822;23.564;2024-03-02T02:35:02;4.23;;;3.83;;
10144;SDS011;5113;41.822;23.564;2024-03-02T02:38:10;9.10;;;4.30;;
10144;SDS011;5113;41.822;23.564;2024-03-02T02:41:18;6.17;;;4.50;;
10144;SDS011;5113;41.822;23.564;2024-03-02T02:44:25;11.63;;;7.47;;
10144;SDS011;5113;41.822;23.564;2024-03-02T02:47:31;6.60;;;5.17;;
10144;SDS011;5113;41.822;23.564;2024-03-02T02:50:39;9.93;;;6.10;;
10144;SDS011;5113;41.822;23.564;2024-03-02T02:53:50;8.47;;;5.57;;
10144;SDS011;5113;41.822;23.564;2024-03-02T02:56:56;5.83;;;4.77;;
10144;SDS011;5113;41.822;23.564;2024-03-02T03:00:05;4.73;;;4.17;;
10144;SDS011;5113;41.822;23.564;2024-03-02T03:03:15;4.33;;;3.80;;
10144;SDS011;5113;41.822;23.564;2024-03-02T03:06:22;5.30;;;4.03;;
10144;SDS011;5113;41.822;23.564;2024-03-02T03:09:32;4.93;;;4.50;;
10144;SDS011;5113;41.822;23.564;2024-03-02T03:12:39;16.70;;;10.63;;
10144;SDS011;5113;41.822;23.564;2024-03-02T03:15:49;15.53;;;11.17;;
10144;SDS011;5113;41.822;23.564;2024-03-02T03:18:55;15.77;;;8.13;;
10144;SDS011;5113;41.822;23.564;2024-03-02T03:22:04;15.93;;;8.87;;
10144;SDS011;5113;41.822;23.564;2024-03-02T03:25:12;16.20;;;10.97;;
10144;SDS011;5113;41.822;23.564;2024-03-02T03:28:19;14.17;;;8.00;;
10144;SDS011;5113;41.822;23.564;2024-03-02T03:31:25;8.77;;;6.37;;
10144;SDS011;5113;41.822;23.564;2024-03-02T03:34:32;13.63;;;8.23;;
10144;SDS011;5113;41.822;23.564;2024-03-02T03:37:39;10.67;;;6.77;;
10144;SDS011;5113;41.822;23.564;2024-03-02T03:40:47;10.57;;;7.00;;
10144;SDS011;5113;41.822;23.564;2024-03-02T03:43:54;9.00;;;6.73;;
10144;SDS011;5113;41.822;23.564;2024-03-02T03:47:01;10.87;;;6.50;;
10144;SDS011;5113;41.822;23.564;2024-03-02T03:50:07;7.77;;;5.63;;
10144;SDS011;5113;41.822;23.564;2024-03-02T03:53:14;10.87;;;7.17;;
10144;SDS011;5113;41.822;23.564;2024-03-02T03:56:22;18.70;;;10.63;;
10144;SDS011;5113;41.822;23.564;2024-03-02T03:59:28;21.20;;;13.97;;
10144;SDS011;5113;41.822;23.564;2024-03-02T04:02:35;16.33;;;10.07;;
10144;SDS011;5113;41.822;23.564;2024-03-02T04:05:41;15.43;;;10.43;;
10144;SDS011;5113;41.822;23.564;2024-03-02T04:08:48;18.63;;;10.00;;
10144;SDS011;5113;41.822;23.564;2024-03-02T04:11:57;23.10;;;11.83;;
10144;SDS011;5113;41.822;23.564;2024-03-02T04:15:04;20.00;;;8.60;;
10144;SDS011;5113;41.822;23.564;2024-03-02T04:18:11;15.67;;;8.83;;
10144;SDS011;5113;41.822;23.564;2024-03-02T04:21:17;13.63;;;8.27;;
10144;SDS011;5113;41.822;23.564;2024-03-02T04:24:24;16.53;;;9.00;;
10144;SDS011;5113;41.822;23.564;2024-03-02T04:27:32;15.43;;;9.93;;
10144;SDS011;5113;41.822;23.564;2024-03-02T04:30:39;22.93;;;11.37;;
10144;SDS011;5113;41.822;23.564;2024-03-02T04:33:45;8.90;;;5.33;;
10144;SDS011;5113;41.822;23.564;2024-03-02T04:36:53;4.10;;;3.70;;
10144;SDS011;5113;41.822;23.564;2024-03-02T04:39:59;4.80;;;4.40;;
10144;SDS011;5113;41.822;23.564;2024-03-02T04:43:08;6.07;;;5.47;;
10144;SDS011;5113;41.822;23.564;2024-03-02T04:46:14;6.97;;;5.90;;
10144;SDS011;5113;41.822;23.564;2024-03-02T04:49:22;9.03;;;6.40;;
10144;SDS011;5113;41.822;23.564;2024-03-02T04:52:28;9.73;;;7.67;;
10144;SDS011;5113;41.822;23.564;2024-03-02T04:55:34;11.17;;;7.63;;
10144;SDS011;5113;41.822;23.564;2024-03-02T04:59:00;51.20;;;25.07;;
10144;SDS011;5113;41.822;23.564;2024-03-02T05:02:06;44.07;;;31.17;;
10144;SDS011;5113;41.822;23.564;2024-03-02T05:05:13;24.83;;;17.37;;
10144;SDS011;5113;41.822;23.564;2024-03-02T05:08:20;14.53;;;9.80;;
10144;SDS011;5113;41.822;23.564;2024-03-02T05:11:26;7.10;;;6.37;;
10144;SDS011;5113;41.822;23.564;2024-03-02T05:15:06;14.70;;;8.43;;
10144;SDS011;5113;41.822;23.564;2024-03-02T05:18:14;23.03;;;12.57;;
10144;SDS011;5113;41.822;23.564;2024-03-02T05:21:21;24.50;;;13.87;;
10144;SDS011;5113;41.822;23.564;2024-03-02T05:24:28;29.20;;;15.90;;
10144;SDS011;5113;41.822;23.564;2024-03-02T05:27:35;26.93;;;16.83;;
10144;SDS011;5113;41.822;23.564;2024-03-02T05:30:43;19.43;;;15.00;;
10144;SDS011;5113;41.822;23.564;2024-03-02T05:33:51;11.97;;;9.50;;
10144;SDS011;5113;41.822;23.564;2024-03-02T05:37:01;7.27;;;6.20;;
10144;SDS011;5113;41.822;23.564;2024-03-02T05:40:08;7.07;;;6.20;;
10144;SDS011;5113;41.822;23.564;2024-03-02T05:43:15;5.03;;;4.63;;
10144;SDS011;5113;41.822;23.564;2024-03-02T05:46:24;9.30;;;4.93;;
10144;SDS011;5113;41.822;23.564;2024-03-02T05:49:31;6.90;;;6.20;;
10144;SDS011;5113;41.822;23.564;2024-03-02T05:52:38;6.50;;;5.40;;
10144;SDS011;5113;41.822;23.564;2024-03-02T05:55:45;4.60;;;4.20;;
10144;SDS011;5113;41.822;23.564;2024-03-02T05:58:51;7.00;;;6.33;;
10144;SDS011;5113;41.822;23.564;2024-03-02T06:02:14;12.80;;;10.07;;
10144;SDS011;5113;41.822;23.564;2024-03-02T06:05:21;18.17;;;11.77;;
10144;SDS011;5113;41.822;23.564;2024-03-02T06:08:27;15.77;;;11.43;;
10144;SDS011;5113;41.822;23.564;2024-03-02T06:11:34;11.53;;;7.87;;
10144;SDS011;5113;41.822;23.564;2024-03-02T06:14:41;8.67;;;7.27;;
10144;SDS011;5113;41.822;23.564;2024-03-02T06:17:50;23.73;;;14.40;;
10144;SDS011;5113;41.822;23.564;2024-03-02T06:20:57;33.97;;;19.83;;
10144;SDS011;5113;41.822;23.564;2024-03-02T06:24:03;26.80;;;16.80;;
10144;SDS011;5113;41.822;23.564;2024-03-02T06:27:10;19.83;;;12.37;;
10144;SDS011;5113;41.822;23.564;2024-03-02T06:30:17;14.57;;;10.93;;
10144;SDS011;5113;41.822;23.564;2024-03-02T06:33:25;8.27;;;5.90;;
10144;SDS011;5113;41.822;23.564;2024-03-02T06:36:31;5.63;;;4.90;;
10144;SDS011;5113;41.822;23.564;2024-03-02T06:39:37;8.93;;;7.07;;
10144;SDS011;5113;41.822;23.564;2024-03-02T06:42:43;8.80;;;6.83;;
10144;SDS011;5113;41.822;23.564;2024-03-02T06:45:51;36.53;;;18.73;;
10144;SDS011;5113;41.822;23.564;2024-03-02T06:48:59;27.53;;;14.60;;
10144;SDS011;5113;41.822;23.564;2024-03-02T06:52:07;97.13;;;40.30;;
10144;SDS011;5113;41.822;23.564;2024-03-02T06:55:14;53.67;;;24.63;;
10144;SDS011;5113;41.822;23.564;2024-03-02T06:58:20;18.57;;;11.50;;
10144;SDS011;5113;41.822;23.564;2024-03-02T07:01:27;15.83;;;9.97;;
10144;SDS011;5113;41.822;23.564;2024-03-02T07:04:35;13.63;;;9.33;;
10144;SDS011;5113;41.822;23.564;2024-03-02T07:07:41;30.83;;;16.30;;
10144;SDS011;5113;41.822;23.564;2024-03-02T07:10:48;23.00;;;12.33;;
10144;SDS011;5113;41.822;23.564;2024-03-02T07:13:54;26.43;;;10.93;;
10144;SDS011;5113;41.822;23.564;2024-03-02T07:17:01;28.80;;;13.63;;
10144;SDS011;5113;41.822;23.564;2024-03-02T07:20:09;21.47;;;10.17;;
10144;SDS011;5113;41.822;23.564;2024-03-02T07:23:16;26.00;;;12.60;;
10144;SDS011;5113;41.822;23.564;2024-03-02T07:26:24;12.50;;;7.23;;
10144;SDS011;5113;41.822;23.564;2024-03-02T07:29:33;11.20;;;5.83;;
10144;SDS011;5113;41.822;23.564;2024-03-02T07:32:39;11.73;;;7.70;;
10144;SDS011;5113;41.822;23.564;2024-03-02T07:35:51;19.23;;;10.57;;
10144;SDS011;5113;41.822;23.564;2024-03-02T07:38:59;21.67;;;11.77;;
10144;SDS011;5113;41.822;23.564;2024-03-02T07:42:06;12.33;;;8.23;;
10144;SDS011;5113;41.822;23.564;2024-03-02T07:45:13;6.23;;;4.23;;
10144;SDS011;5113;41.822;23.564;2024-03-02T07:48:19;12.57;;;6.60;;
10144;SDS011;5113;41.822;23.564;2024-03-02T07:51:28;12.07;;;8.20;;
10144;SDS011;5113;41.822;23.564;2024-03-02T07:54:35;17.83;;;9.73;;
10144;SDS011;5113;41.822;23.564;2024-03-02T07:57:41;6.90;;;5.83;;
10144;SDS011;5113;41.822;23.564;2024-03-02T08:00:47;8.27;;;6.73;;
10144;SDS011;5113;41.822;23.564;2024-03-02T08:03:58;6.47;;;5.70;;
10144;SDS011;5113;41.822;23.564;2024-03-02T08:07:09;14.17;;;9.20;;
10144;SDS011;5113;41.822;23.564;2024-03-02T08:10:16;12.60;;;8.53;;
10144;SDS011;5113;41.822;23.564;2024-03-02T08:13:22;9.17;;;6.77;;
10144;SDS011;5113;41.822;23.564;2024-03-02T08:16:29;8.70;;;6.60;;
10144;SDS011;5113;41.822;23.564;2024-03-02T08:19:36;7.07;;;6.37;;
10144;SDS011;5113;41.822;23.564;2024-03-02T08:22:44;12.27;;;7.33;;
10144;SDS011;5113;41.822;23.564;2024-03-02T08:25:52;9.60;;;7.07;;
10144;SDS011;5113;41.822;23.564;2024-03-02T08:28:59;13.10;;;8.63;;
10144;SDS011;5113;41.822;23.564;2024-03-02T08:32:08;4.23;;;3.83;;
10144;SDS011;5113;41.822;23.564;2024-03-02T08:35:15;6.13;;;4.87;;
10144;SDS011;5113;41.822;23.564;2024-03-02T08:38:23;6.50;;;5.30;;
10144;SDS011;5113;41.822;23.564;2024-03-02T08:41:31;5.20;;;4.50;;
10144;SDS011;5113;41.822;23.564;2024-03-02T08:44:38;5.40;;;4.30;;
10144;SDS011;5113;41.822;23.564;2024-03-02T08:47:44;4.00;;;3.60;;
10144;SDS011;5113;41.822;23.564;2024-03-02T08:50:51;6.83;;;3.83;;
10144;SDS011;5113;41.822;23.564;2024-03-02T08:54:00;22.03;;;14.53;;
10144;SDS011;5113;41.822;23.564;2024-03-02T08:57:06;7.90;;;5.73;;
10144;SDS011;5113;41.822;23.564;2024-03-02T09:00:13;9.17;;;6.77;;
10144;SDS011;5113;41.822;23.564;2024-03-02T09:03:21;9.27;;;7.17;;
10144;SDS011;5113;41.822;23.564;2024-03-02T09:06:28;14.17;;;7.10;;
10144;SDS011;5113;41.822;23.564;2024-03-02T09:09:36;9.60;;;7.80;;
10144;SDS011;5113;41.822;23.564;2024-03-02T09:12:43;11.00;;;7.23;;
10144;SDS011;5113;41.822;23.564;2024-03-02T09:15:50;12.47;;;8.93;;
10144;SDS011;5113;41.822;23.564;2024-03-02T09:18:57;14.30;;;10.90;;
10144;SDS011;5113;41.822;23.564;2024-03-02T09:22:05;12.53;;;9.13;;
10144;SDS011;5113;41.822;23.564;2024-03-02T09:25:13;11.87;;;8.90;;
10144;SDS011;5113;41.822;23.564;2024-03-02T09:28:21;7.33;;;5.90;;
10144;SDS011;5113;41.822;23.564;2024-03-02T09:31:28;9.37;;;6.30;;
10144;SDS011;5113;41.822;23.564;2024-03-02T09:34:35;8.63;;;6.53;;
10144;SDS011;5113;41.822;23.564;2024-03-02T09:37:42;4.87;;;4.47;;
10144;SDS011;5113;41.822;23.564;2024-03-02T09:40:50;10.23;;;5.43;;
10144;SDS011;5113;41.822;23.564;2024-03-02T09:43:57;6.97;;;5.40;;
10144;SDS011;5113;41.822;23.564;2024-03-02T09:47:03;6.97;;;4.93;;
10144;SDS011;5113;41.822;23.564;2024-03-02T09:50:10;4.57;;;4.03;;
10144;SDS011;5113;41.822;23.564;2024-03-02T09:53:17;4.60;;;4.03;;
10144;SDS011;5113;41.822;23.564;2024-03-02T09:56:26;5.27;;;4.67;;
10144;SDS011;5113;41.822;23.564;2024-03-02T09:59:32;4.13;;;3.70;;
10144;SDS011;5113;41.822;23.564;2024-03-02T10:02:39;11.53;;;7.13;;
10144;SDS011;5113;41.822;23.564;2024-03-02T10:05:46;6.90;;;5.40;;
10144;SDS011;5113;41.822;23.564;2024-03-02T10:08:53;5.43;;;4.33;;
10144;SDS011;5113;41.822;23.564;2024-03-02T10:12:05;5.33;;;4.70;;
10144;SDS011;5113;41.822;23.564;2024-03-02T10:15:12;6.53;;;3.83;;
10144;SDS011;5113;41.822;23.564;2024-03-02T10:18:26;6.47;;;5.50;;
10144;SDS011;5113;41.822;23.564;2024-03-02T10:21:35;4.33;;;3.93;;
10144;SDS011;5113;41.822;23.564;2024-03-02T10:24:42;7.10;;;5.60;;
10144;SDS011;5113;41.822;23.564;2024-03-02T10:27:52;7.77;;;5.63;;
10144;SDS011;5113;41.822;23.564;2024-03-02T10:30:59;15.43;;;8.57;;
10144;SDS011;5113;41.822;23.564;2024-03-02T10:34:06;12.03;;;8.80;;
10144;SDS011;5113;41.822;23.564;2024-03-02T10:37:13;7.33;;;5.43;;
10144;SDS011;5113;41.822;23.564;2024-03-02T10:40:22;8.77;;;6.70;;
10144;SDS011;5113;41.822;23.564;2024-03-02T10:43:30;8.10;;;6.17;;
10144;SDS011;5113;41.822;23.564;2024-03-02T10:46:37;6.60;;;5.47;;
10144;SDS011;5113;41.822;23.564;2024-03-02T10:49:44;6.43;;;5.13;;
10144;SDS011;5113;41.822;23.564;2024-03-02T10:52:52;14.53;;;12.37;;
10144;SDS011;5113;41.822;23.564;2024-03-02T10:55:59;44.30;;;28.77;;
10144;SDS011;5113;41.822;23.564;2024-03-02T10:59:13;17.50;;;12.07;;
10144;SDS011;5113;41.822;23.564;2024-03-02T11:02:27;15.57;;;10.77;;
10144;SDS011;5113;41.822;23.564;2024-03-02T11:05:38;22.03;;;14.60;;
10144;SDS011;5113;41.822;23.564;2024-03-02T11:08:46;24.90;;;12.20;;
10144;SDS011;5113;41.822;23.564;2024-03-02T11:12:03;18.90;;;10.47;;
10144;SDS011;5113;41.822;23.564;2024-03-02T11:15:17;23.60;;;10.23;;
10144;SDS011;5113;41.822;23.564;2024-03-02T11:18:25;21.27;;;11.57;;
10144;SDS011;5113;41.822;23.564;2024-03-02T11:21:32;43.03;;;23.10;;
10144;SDS011;5113;41.822;23.564;2024-03-02T11:24:47;27.87;;;14.90;;
10144;SDS011;5113;41.822;23.564;2024-03-02T11:28:01;37.43;;;25.33;;
10144;SDS011;5113;41.822;23.564;2024-03-02T11:31:10;19.33;;;12.07;;
10144;SDS011;5113;41.822;23.564;2024-03-02T11:34:17;30.77;;;20.03;;
10144;SDS011;5113;41.822;23.564;2024-03-02T11:37:35;26.67;;;14.63;;
10144;SDS011;5113;41.822;23.564;2024-03-02T11:40:43;68.87;;;27.17;;
10144;SDS011;5113;41.822;23.564;2024-03-02T11:43:50;29.20;;;13.33;;
10144;SDS011;5113;41.822;23.564;2024-03-02T11:46:59;27.10;;;14.47;;
10144;SDS011;5113;41.822;23.564;2024-03-02T11:50:07;22.57;;;15.03;;
10144;SDS011;5113;41.822;23.564;2024-03-02T11:53:13;26.23;;;16.20;;
10144;SDS011;5113;41.822;23.564;2024-03-02T11:56:21;41.57;;;23.57;;
10144;SDS011;5113;41.822;23.564;2024-03-02T11:59:31;20.77;;;13.00;;
10144;SDS011;5113;41.822;23.564;2024-03-02T12:02:39;16.57;;;11.83;;
10144;SDS011;5113;41.822;23.564;2024-03-02T12:05:52;50.53;;;37.70;;
10144;SDS011;5113;41.822;23.564;2024-03-02T12:08:59;8.53;;;6.93;;
10144;SDS011;5113;41.822;23.564;2024-03-02T12:12:07;7.97;;;6.87;;
10144;SDS011;5113;41.822;23.564;2024-03-02T12:15:16;6.10;;;5.00;;
10144;SDS011;5113;41.822;23.564;2024-03-02T12:18:24;6.10;;;5.20;;
10144;SDS011;5113;41.822;23.564;2024-03-02T12:21:31;10.03;;;5.80;;
10144;SDS011;5113;41.822;23.564;2024-03-02T12:24:38;10.33;;;6.73;;
10144;SDS011;5113;41.822;23.564;2024-03-02T12:27:45;11.73;;;8.67;;
10144;SDS011;5113;41.822;23.564;2024-03-02T12:30:52;29.60;;;17.77;;
10144;SDS011;5113;41.822;23.564;2024-03-02T12:34:00;63.73;;;38.27;;
10144;SDS011;5113;41.822;23.564;2024-03-02T12:37:07;32.13;;;22.03;;
10144;SDS011;5113;41.822;23.564;2024-03-02T12:40:14;32.17;;;20.10;;
10144;SDS011;5113;41.822;23.564;2024-03-02T12:43:23;13.13;;;7.30;;
10144;SDS011;5113;41.822;23.564;2024-03-02T12:46:29;8.20;;;5.60;;
10144;SDS011;5113;41.822;23.564;2024-03-02T12:49:37;5.47;;;4.50;;
10144;SDS011;5113;41.822;23.564;2024-03-02T12:52:50;14.87;;;11.07;;
10144;SDS011;5113;41.822;23.564;2024-03-02T12:55:58;14.07;;;8.30;;
10144;SDS011;5113;41.822;23.564;2024-03-02T12:59:05;13.03;;;8.70;;
10144;SDS011;5113;41.822;23.564;2024-03-02T13:02:16;6.10;;;4.87;;
10144;SDS011;5113;41.822;23.564;2024-03-02T13:05:25;7.20;;;5.10;;
10144;SDS011;5113;41.822;23.564;2024-03-02T13:08:36;18.27;;;11.63;;
10144;SDS011;5113;41.822;23.564;2024-03-02T13:11:42;21.80;;;10.90;;
10144;SDS011;5113;41.822;23.564;2024-03-02T13:14:49;10.20;;;6.07;;
10144;SDS011;5113;41.822;23.564;2024-03-02T13:17:58;15.27;;;9.17;;
10144;SDS011;5113;41.822;23.564;2024-03-02T13:21:07;12.10;;;6.40;;
10144;SDS011;5113;41.822;23.564;2024-03-02T13:24:13;13.83;;;8.43;;
10144;SDS011;5113;41.822;23.564;2024-03-02T13:27:20;12.43;;;8.07;;
10144;SDS011;5113;41.822;23.564;2024-03-02T13:30:27;10.87;;;6.73;;
10144;SDS011;5113;41.822;23.564;2024-03-02T13:33:34;17.77;;;11.70;;
10144;SDS011;5113;41.822;23.564;2024-03-02T13:36:42;13.57;;;10.37;;
10144;SDS011;5113;41.822;23.564;2024-03-02T13:39:48;22.87;;;14.00;;
10144;SDS011;5113;41.822;23.564;2024-03-02T13:42:55;20.70;;;12.30;;
10144;SDS011;5113;41.822;23.564;2024-03-02T13:46:02;17.20;;;9.30;;
10144;SDS011;5113;41.822;23.564;2024-03-02T13:49:09;12.17;;;8.30;;
10144;SDS011;5113;41.822;23.564;2024-03-02T13:52:17;14.80;;;8.60;;
10144;SDS011;5113;41.822;23.564;2024-03-02T13:55:25;10.67;;;5.97;;
10144;SDS011;5113;41.822;23.564;2024-03-02T13:58:31;4.97;;;4.00;;
10144;SDS011;5113;41.822;23.564;2024-03-02T14:01:38;11.93;;;7.30;;
10144;SDS011;5113;41.822;23.564;2024-03-02T14:04:44;7.20;;;5.70;;
10144;SDS011;5113;41.822;23.564;2024-03-02T14:07:53;12.63;;;5.60;;
10144;SDS011;5113;41.822;23.564;2024-03-02T14:10:59;12.97;;;7.80;;
10144;SDS011;5113;41.822;23.564;2024-03-02T14:14:08;18.10;;;9.70;;
10144;SDS011;5113;41.822;23.564;2024-03-02T14:17:14;9.80;;;6.43;;
10144;SDS011;5113;41.822;23.564;2024-03-02T14:20:21;8.90;;;6.40;;
10144;SDS011;5113;41.822;23.564;2024-03-02T14:23:29;10.77;;;6.33;;
10144;SDS011;5113;41.822;23.564;2024-03-02T14:26:36;10.10;;;6.63;;
10144;SDS011;5113;41.822;23.564;2024-03-02T14:29:43;6.97;;;4.63;;
10144;SDS011;5113;41.822;23.564;2024-03-02T14:32:50;7.70;;;6.20;;
10144;SDS011;5113;41.822;23.564;2024-03-02T14:35:56;9.63;;;4.73;;
10144;SDS011;5113;41.822;23.564;2024-03-02T14:39:05;13.37;;;8.13;;
10144;SDS011;5113;41.822;23.564;2024-03-02T14:42:14;11.63;;;6.70;;
10144;SDS011;5113;41.822;23.564;2024-03-02T14:45:21;9.53;;;6.23;;
10144;SDS011;5113;41.822;23.564;2024-03-02T14:48:28;17.07;;;8.57;;
10144;SDS011;5113;41.822;23.564;2024-03-02T14:51:36;8.90;;;5.37;;
10144;SDS011;5113;41.822;23.564;2024-03-02T14:54:44;8.10;;;4.67;;
10144;SDS011;5113;41.822;23.564;2024-03-02T14:57:51;6.47;;;5.53;;
10144;SDS011;5113;41.822;23.564;2024-03-02T15:00:58;5.70;;;5.13;;
10144;SDS011;5113;41.822;23.564;2024-03-02T15:04:05;9.97;;;6.57;;
10144;SDS011;5113;41.822;23.564;2024-03-02T15:07:13;143.43;;;48.00;;
10144;SDS011;5113;41.822;23.564;2024-03-02T15:10:21;83.07;;;25.57;;
10144;SDS011;5113;41.822;23.564;2024-03-02T15:13:29;58.27;;;22.63;;
10144;SDS011;5113;41.822;23.564;2024-03-02T15:16:36;201.00;;;69.97;;
10144;SDS011;5113;41.822;23.564;2024-03-02T15:19:42;82.43;;;32.40;;
10144;SDS011;5113;41.822;23.564;2024-03-02T15:22:50;28.77;;;14.63;;
10144;SDS011;5113;41.822;23.564;2024-03-02T15:25:58;46.37;;;20.80;;
10144;SDS011;5113;41.822;23.564;2024-03-02T15:29:05;69.27;;;26.40;;
10144;SDS011;5113;41.822;23.564;2024-03-02T15:32:12;50.30;;;23.23;;
10144;SDS011;5113;41.822;23.564;2024-03-02T15:35:19;34.40;;;17.27;;
10144;SDS011;5113;41.822;23.564;2024-03-02T15:38:25;28.90;;;15.30;;
10144;SDS011;5113;41.822;23.564;2024-03-02T15:41:40;24.97;;;12.70;;
10144;SDS011;5113;41.822;23.564;2024-03-02T15:44:47;38.70;;;18.80;;
10144;SDS011;5113;41.822;23.564;2024-03-02T15:47:53;37.37;;;17.87;;
10144;SDS011;5113;41.822;23.564;2024-03-02T15:51:00;47.60;;;21.97;;
10144;SDS011;5113;41.822;23.564;2024-03-02T15:54:11;46.13;;;19.43;;
10144;SDS011;5113;41.822;23.564;2024-03-02T15:57:19;66.80;;;28.60;;
10144;SDS011;5113;41.822;23.564;2024-03-02T16:00:27;34.57;;;18.40;;
10144;SDS011;5113;41.822;23.564;2024-03-02T16:03:34;39.97;;;22.40;;
10144;SDS011;5113;41.822;23.564;2024-03-02T16:06:40;35.47;;;16.27;;
10144;SDS011;5113;41.822;23.564;2024-03-02T16:09:47;28.57;;;12.70;;
10144;SDS011;5113;41.822;23.564;2024-03-02T16:12:55;34.33;;;15.77;;
10144;SDS011;5113;41.822;23.564;2024-03-02T16:16:05;32.47;;;14.30;;
10144;SDS011;5113;41.822;23.564;2024-03-02T16:19:12;27.43;;;13.70;;
10144;SDS011;5113;41.822;23.564;2024-03-02T16:22:32;25.03;;;12.53;;
10144;SDS011;5113;41.822;23.564;2024-03-02T16:25:39;21.67;;;10.93;;
10144;SDS011;5113;41.822;23.564;2024-03-02T16:28:47;28.57;;;15.80;;
10144;SDS011;5113;41.822;23.564;2024-03-02T16:31:53;26.43;;;12.53;;
10144;SDS011;5113;41.822;23.564;2024-03-02T16:35:00;20.67;;;13.17;;
10144;SDS011;5113;41.822;23.564;2024-03-02T16:41:33;19.10;;;10.13;;
10144;SDS011;5113;41.822;23.564;2024-03-02T16:44:41;11.03;;;7.63;;
10144;SDS011;5113;41.822;23.564;2024-03-02T16:47:48;21.70;;;10.63;;
10144;SDS011;5113;41.822;23.564;2024-03-02T16:50:54;22.73;;;8.80;;
10144;SDS011;5113;41.822;23.564;2024-03-02T16:54:01;19.73;;;11.00;;
10144;SDS011;5113;41.822;23.564;2024-03-02T16:57:07;98.17;;;45.63;;
10144;SDS011;5113;41.822;23.564;2024-03-02T17:00:18;26.43;;;14.13;;
10144;SDS011;5113;41.822;23.564;2024-03-02T17:03:25;78.03;;;33.80;;
10144;SDS011;5113;41.822;23.564;2024-03-02T17:06:31;81.90;;;34.43;;
10144;SDS011;5113;41.822;23.564;2024-03-02T17:09:38;84.57;;;39.10;;
10144;SDS011;5113;41.822;23.564;2024-03-02T17:13:03;73.07;;;35.30;;
10144;SDS011;5113;41.822;23.564;2024-03-02T17:16:12;57.37;;;29.87;;
10144;SDS011;5113;41.822;23.564;2024-03-02T17:19:20;47.63;;;25.60;;
10144;SDS011;5113;41.822;23.564;2024-03-02T17:22:29;37.43;;;20.83;;
10144;SDS011;5113;41.822;23.564;2024-03-02T17:25:38;38.63;;;22.50;;
10144;SDS011;5113;41.822;23.564;2024-03-02T17:28:44;42.13;;;26.20;;
10144;SDS011;5113;41.822;23.564;2024-03-02T17:31:52;32.67;;;20.83;;
10144;SDS011;5113;41.822;23.564;2024-03-02T17:35:00;54.17;;;25.43;;
10144;SDS011;5113;41.822;23.564;2024-03-02T17:38:07;75.20;;;38.73;;
10144;SDS011;5113;41.822;23.564;2024-03-02T17:41:14;33.77;;;21.00;;
10144;SDS011;5113;41.822;23.564;2024-03-02T17:44:20;38.20;;;21.07;;
10144;SDS011;5113;41.822;23.564;2024-03-02T17:47:28;37.53;;;22.50;;
10144;SDS011;5113;41.822;23.564;2024-03-02T17:50:35;37.87;;;19.50;;
10144;SDS011;5113;41.822;23.564;2024-03-02T17:53:41;37.77;;;20.70;;
10144;SDS011;5113;41.822;23.564;2024-03-02T17:56:49;82.43;;;40.33;;
10144;SDS011;5113;41.822;23.564;2024-03-02T17:59:55;90.03;;;46.40;;
10144;SDS011;5113;41.822;23.564;2024-03-02T18:03:03;80.13;;;42.47;;
10144;SDS011;5113;41.822;23.564;2024-03-02T18:06:10;81.13;;;38.60;;
10144;SDS011;5113;41.822;23.564;2024-03-02T18:09:18;62.97;;;35.83;;
10144;SDS011;5113;41.822;23.564;2024-03-02T18:12:25;31.13;;;17.73;;
10144;SDS011;5113;41.822;23.564;2024-03-02T18:15:31;39.30;;;21.23;;
10144;SDS011;5113;41.822;23.564;2024-03-02T18:18:40;30.03;;;18.03;;
10144;SDS011;5113;41.822;23.564;2024-03-02T18:21:46;36.87;;;21.10;;
10144;SDS011;5113;41.822;23.564;2024-03-02T18:24:53;35.53;;;20.07;;
10144;SDS011;5113;41.822;23.564;2024-03-02T18:28:00;36.23;;;18.33;;
10144;SDS011;5113;41.822;23.564;2024-03-02T18:31:07;35.90;;;19.87;;
10144;SDS011;5113;41.822;23.564;2024-03-02T18:34:15;47.33;;;28.70;;
10144;SDS011;5113;41.822;23.564;2024-03-02T18:37:22;60.40;;;33.53;;